sensor_id;sensor_type;location;lat;lon;timestamp;P1;durP1;ratioP1;P2;durP2;ratioP2
15381;SDS011;7789;51.364;12.358;2023-05-27T00:01:02;11.30;;;4.00;;
15381;SDS011;7789;51.364;12.358;2023-05-27T00:06:05;15.50;;;4.20;;
15381;SDS011;7789;51.364;12.358;2023-05-27T00:11:11;9.70;;;4.10;;
15381;SDS011;7789;51.364;12.358;2023-05-27T00:16:14;10.73;;;4.72;;
15381;SDS011;7789;51.364;12.358;2023-05-27T00:21:18;12.00;;;4.63;;
15381;SDS011;7789;51.364;12.358;2023-05-27T00:26:23;12.30;;;4.20;;
15381;SDS011;7789;51.364;12.358;2023-05-27T00:31:27;12.90;;;4.07;;
15381;SDS011;7789;51.364;12.358;2023-05-27T00:36:31;9.00;;;3.80;;
15381;SDS011;7789;51.364;12.358;2023-05-27T00:41:35;13.73;;;4.37;;
15381;SDS011;7789;51.364;12.358;2023-05-27T00:46:39;15.50;;;4.80;;
15381;SDS011;7789;51.364;12.358;2023-05-27T00:51:43;12.83;;;3.70;;
15381;SDS011;7789;51.364;12.358;2023-05-27T00:56:49;14.30;;;4.77;;
15381;SDS011;7789;51.364;12.358;2023-05-27T01:01:54;11.47;;;4.50;;
15381;SDS011;7789;51.364;12.358;2023-05-27T01:06:58;10.70;;;4.00;;
15381;SDS011;7789;51.364;12.358;2023-05-27T01:12:15;10.70;;;4.00;;
15381;SDS011;7789;51.364;12.358;2023-05-27T01:17:24;11.43;;;4.13;;
15381;SDS011;7789;51.364;12.358;2023-05-27T01:22:31;13.13;;;4.90;;
15381;SDS011;7789;51.364;12.358;2023-05-27T01:27:35;13.17;;;4.50;;
15381;SDS011;7789;51.364;12.358;2023-05-27T01:32:45;7.67;;;3.60;;
15381;SDS011;7789;51.364;12.358;2023-05-27T01:37:58;10.90;;;4.60;;
15381;SDS011;7789;51.364;12.358;2023-05-27T01:43:04;14.33;;;4.50;;
15381;SDS011;7789;51.364;12.358;2023-05-27T01:48:09;11.50;;;4.67;;
15381;SDS011;7789;51.364;12.358;2023-05-27T01:53:15;10.17;;;4.30;;
15381;SDS011;7789;51.364;12.358;2023-05-27T01:58:18;8.70;;;3.93;;
15381;SDS011;7789;51.364;12.358;2023-05-27T02:03:22;10.33;;;4.30;;
15381;SDS011;7789;51.364;12.358;2023-05-27T02:08:29;8.63;;;3.63;;
15381;SDS011;7789;51.364;12.358;2023-05-27T02:13:33;8.83;;;3.90;;
15381;SDS011;7789;51.364;12.358;2023-05-27T02:18:37;10.80;;;4.13;;
15381;SDS011;7789;51.364;12.358;2023-05-27T02:23:42;14.40;;;4.97;;
15381;SDS011;7789;51.364;12.358;2023-05-27T02:28:45;11.30;;;4.13;;
15381;SDS011;7789;51.364;12.358;2023-05-27T02:33:49;11.80;;;5.57;;
15381;SDS011;7789;51.364;12.358;2023-05-27T02:38:54;10.97;;;3.97;;
15381;SDS011;7789;51.364;12.358;2023-05-27T02:43:57;11.17;;;4.37;;
15381;SDS011;7789;51.364;12.358;2023-05-27T02:49:00;13.17;;;5.13;;
15381;SDS011;7789;51.364;12.358;2023-05-27T02:54:05;11.57;;;4.20;;
15381;SDS011;7789;51.364;12.358;2023-05-27T02:59:09;11.00;;;3.97;;
15381;SDS011;7789;51.364;12.358;2023-05-27T03:04:12;11.17;;;5.93;;
15381;SDS011;7789;51.364;12.358;2023-05-27T03:09:17;11.43;;;4.43;;
15381;SDS011;7789;51.364;12.358;2023-05-27T03:14:20;9.63;;;4.37;;
15381;SDS011;7789;51.364;12.358;2023-05-27T03:19:23;11.23;;;4.70;;
15381;SDS011;7789;51.364;12.358;2023-05-27T03:24:28;12.73;;;4.73;;
15381;SDS011;7789;51.364;12.358;2023-05-27T03:29:31;13.87;;;4.90;;
15381;SDS011;7789;51.364;12.358;2023-05-27T03:34:35;9.93;;;4.50;;
15381;SDS011;7789;51.364;12.358;2023-05-27T03:40:13;13.17;;;4.43;;
15381;SDS011;7789;51.364;12.358;2023-05-27T03:45:16;11.50;;;4.27;;
15381;SDS011;7789;51.364;12.358;2023-05-27T03:50:20;11.67;;;4.10;;
15381;SDS011;7789;51.364;12.358;2023-05-27T03:55:29;10.93;;;4.20;;
15381;SDS011;7789;51.364;12.358;2023-05-27T04:00:33;11.57;;;4.37;;
15381;SDS011;7789;51.364;12.358;2023-05-27T04:05:37;7.33;;;3.60;;
15381;SDS011;7789;51.364;12.358;2023-05-27T04:10:41;11.77;;;4.37;;
15381;SDS011;7789;51.364;12.358;2023-05-27T04:15:45;11.33;;;4.23;;
15381;SDS011;7789;51.364;12.358;2023-05-27T04:20:49;13.83;;;4.63;;
15381;SDS011;7789;51.364;12.358;2023-05-27T04:25:55;10.63;;;4.80;;
15381;SDS011;7789;51.364;12.358;2023-05-27T04:30:58;11.63;;;4.30;;
15381;SDS011;7789;51.364;12.358;2023-05-27T04:36:02;10.73;;;4.50;;
15381;SDS011;7789;51.364;12.358;2023-05-27T04:41:07;11.73;;;4.40;;
15381;SDS011;7789;51.364;12.358;2023-05-27T04:46:10;12.10;;;4.53;;
15381;SDS011;7789;51.364;12.358;2023-05-27T04:51:15;13.03;;;5.03;;
15381;SDS011;7789;51.364;12.358;2023-05-27T04:56:20;10.15;;;4.10;;
15381;SDS011;7789;51.364;12.358;2023-05-27T05:01:23;11.02;;;4.40;;
15381;SDS011;7789;51.364;12.358;2023-05-27T05:06:29;12.45;;;4.07;;
15381;SDS011;7789;51.364;12.358;2023-05-27T05:11:34;10.65;;;4.43;;
15381;SDS011;7789;51.364;12.358;2023-05-27T05:16:37;13.93;;;4.43;;
15381;SDS011;7789;51.364;12.358;2023-05-27T05:21:41;13.38;;;4.30;;
15381;SDS011;7789;51.364;12.358;2023-05-27T05:26:46;13.60;;;5.15;;
15381;SDS011;7789;51.364;12.358;2023-05-27T05:31:49;8.18;;;4.07;;
15381;SDS011;7789;51.364;12.358;2023-05-27T05:36:53;11.07;;;4.40;;
15381;SDS011;7789;51.364;12.358;2023-05-27T05:41:58;11.10;;;3.80;;
15381;SDS011;7789;51.364;12.358;2023-05-27T05:47:01;10.40;;;4.05;;
15381;SDS011;7789;51.364;12.358;2023-05-27T05:52:04;11.25;;;4.22;;
15381;SDS011;7789;51.364;12.358;2023-05-27T05:57:09;9.32;;;4.00;;
15381;SDS011;7789;51.364;12.358;2023-05-27T06:02:13;10.20;;;4.15;;
15381;SDS011;7789;51.364;12.358;2023-05-27T06:07:16;8.73;;;3.92;;
15381;SDS011;7789;51.364;12.358;2023-05-27T06:12:21;8.75;;;4.07;;
15381;SDS011;7789;51.364;12.358;2023-05-27T06:17:26;9.32;;;3.65;;
15381;SDS011;7789;51.364;12.358;2023-05-27T06:22:29;10.77;;;3.33;;
15381;SDS011;7789;51.364;12.358;2023-05-27T06:27:34;7.47;;;3.58;;
15381;SDS011;7789;51.364;12.358;2023-05-27T06:32:37;9.95;;;4.00;;
15381;SDS011;7789;51.364;12.358;2023-05-27T06:37:40;8.50;;;3.33;;
15381;SDS011;7789;51.364;12.358;2023-05-27T06:42:48;9.93;;;3.92;;
15381;SDS011;7789;51.364;12.358;2023-05-27T06:47:51;8.63;;;3.30;;
15381;SDS011;7789;51.364;12.358;2023-05-27T06:52:55;10.90;;;3.20;;
15381;SDS011;7789;51.364;12.358;2023-05-27T06:57:59;7.85;;;2.88;;
15381;SDS011;7789;51.364;12.358;2023-05-27T07:03:03;9.63;;;3.30;;
15381;SDS011;7789;51.364;12.358;2023-05-27T07:08:07;6.65;;;3.10;;
15381;SDS011;7789;51.364;12.358;2023-05-27T07:13:11;8.43;;;2.72;;
15381;SDS011;7789;51.364;12.358;2023-05-27T07:18:15;8.95;;;3.33;;
15381;SDS011;7789;51.364;12.358;2023-05-27T07:23:18;9.70;;;3.33;;
15381;SDS011;7789;51.364;12.358;2023-05-27T07:28:23;9.88;;;3.10;;
15381;SDS011;7789;51.364;12.358;2023-05-27T07:33:27;6.18;;;2.80;;
15381;SDS011;7789;51.364;12.358;2023-05-27T07:38:30;7.68;;;3.13;;
15381;SDS011;7789;51.364;12.358;2023-05-27T07:43:35;10.18;;;2.90;;
15381;SDS011;7789;51.364;12.358;2023-05-27T07:48:41;10.27;;;3.10;;
15381;SDS011;7789;51.364;12.358;2023-05-27T07:53:44;7.28;;;2.33;;
15381;SDS011;7789;51.364;12.358;2023-05-27T07:58:51;6.57;;;2.38;;
15381;SDS011;7789;51.364;12.358;2023-05-27T08:03:54;4.07;;;2.22;;
15381;SDS011;7789;51.364;12.358;2023-05-27T08:09:01;6.45;;;2.55;;
15381;SDS011;7789;51.364;12.358;2023-05-27T08:14:07;9.27;;;3.17;;
15381;SDS011;7789;51.364;12.358;2023-05-27T08:19:10;12.38;;;3.28;;
15381;SDS011;7789;51.364;12.358;2023-05-27T08:24:14;7.43;;;2.58;;
15381;SDS011;7789;51.364;12.358;2023-05-27T08:29:19;8.10;;;2.58;;
15381;SDS011;7789;51.364;12.358;2023-05-27T08:34:22;8.48;;;2.97;;
15381;SDS011;7789;51.364;12.358;2023-05-27T08:39:27;6.78;;;2.50;;
15381;SDS011;7789;51.364;12.358;2023-05-27T08:44:32;7.80;;;3.08;;
15381;SDS011;7789;51.364;12.358;2023-05-27T08:49:35;6.50;;;2.33;;
15381;SDS011;7789;51.364;12.358;2023-05-27T08:54:38;6.85;;;2.83;;
15381;SDS011;7789;51.364;12.358;2023-05-27T08:59:45;6.20;;;2.30;;
15381;SDS011;7789;51.364;12.358;2023-05-27T09:04:48;7.55;;;2.85;;
15381;SDS011;7789;51.364;12.358;2023-05-27T09:09:55;7.22;;;2.67;;
15381;SDS011;7789;51.364;12.358;2023-05-27T09:15:01;7.70;;;3.58;;
15381;SDS011;7789;51.364;12.358;2023-05-27T09:20:05;6.43;;;2.55;;
15381;SDS011;7789;51.364;12.358;2023-05-27T09:25:10;7.15;;;2.33;;
15381;SDS011;7789;51.364;12.358;2023-05-27T09:30:18;8.30;;;2.60;;
15381;SDS011;7789;51.364;12.358;2023-05-27T09:35:23;6.22;;;2.40;;
15381;SDS011;7789;51.364;12.358;2023-05-27T09:40:27;6.38;;;2.20;;
15381;SDS011;7789;51.364;12.358;2023-05-27T09:45:33;5.57;;;2.40;;
15381;SDS011;7789;51.364;12.358;2023-05-27T09:50:37;7.78;;;2.38;;
15381;SDS011;7789;51.364;12.358;2023-05-27T09:55:40;7.40;;;2.42;;
15381;SDS011;7789;51.364;12.358;2023-05-27T10:00:45;8.63;;;2.80;;
15381;SDS011;7789;51.364;12.358;2023-05-27T10:05:51;6.30;;;3.00;;
15381;SDS011;7789;51.364;12.358;2023-05-27T10:10:54;6.97;;;2.83;;
15381;SDS011;7789;51.364;12.358;2023-05-27T10:16:00;4.70;;;2.33;;
15381;SDS011;7789;51.364;12.358;2023-05-27T10:21:05;7.57;;;2.50;;
15381;SDS011;7789;51.364;12.358;2023-05-27T10:26:09;9.55;;;2.55;;
15381;SDS011;7789;51.364;12.358;2023-05-27T10:31:15;8.43;;;2.88;;
15381;SDS011;7789;51.364;12.358;2023-05-27T10:36:21;8.68;;;2.80;;
15381;SDS011;7789;51.364;12.358;2023-05-27T10:41:26;8.55;;;2.78;;
15381;SDS011;7789;51.364;12.358;2023-05-27T10:46:39;4.75;;;2.40;;
15381;SDS011;7789;51.364;12.358;2023-05-27T10:51:43;6.45;;;2.53;;
15381;SDS011;7789;51.364;12.358;2023-05-27T10:56:49;6.88;;;2.70;;
15381;SDS011;7789;51.364;12.358;2023-05-27T11:01:55;5.85;;;2.38;;
15381;SDS011;7789;51.364;12.358;2023-05-27T11:07:01;5.82;;;2.65;;
15381;SDS011;7789;51.364;12.358;2023-05-27T11:12:05;5.93;;;2.35;;
15381;SDS011;7789;51.364;12.358;2023-05-27T11:17:10;6.43;;;2.30;;
15381;SDS011;7789;51.364;12.358;2023-05-27T11:22:14;6.72;;;2.63;;
15381;SDS011;7789;51.364;12.358;2023-05-27T11:27:18;8.68;;;2.58;;
15381;SDS011;7789;51.364;12.358;2023-05-27T11:32:23;9.43;;;2.40;;
15381;SDS011;7789;51.364;12.358;2023-05-27T11:37:30;9.35;;;2.70;;
15381;SDS011;7789;51.364;12.358;2023-05-27T11:42:34;5.25;;;2.53;;
15381;SDS011;7789;51.364;12.358;2023-05-27T11:47:42;6.10;;;2.58;;
15381;SDS011;7789;51.364;12.358;2023-05-27T11:52:52;7.82;;;2.70;;
15381;SDS011;7789;51.364;12.358;2023-05-27T11:57:56;8.13;;;2.20;;
15381;SDS011;7789;51.364;12.358;2023-05-27T12:03:01;7.90;;;2.67;;
15381;SDS011;7789;51.364;12.358;2023-05-27T12:08:04;8.15;;;2.67;;
15381;SDS011;7789;51.364;12.358;2023-05-27T12:13:08;5.55;;;2.58;;
15381;SDS011;7789;51.364;12.358;2023-05-27T12:18:13;4.68;;;2.10;;
15381;SDS011;7789;51.364;12.358;2023-05-27T12:23:16;6.57;;;2.70;;
15381;SDS011;7789;51.364;12.358;2023-05-27T12:28:19;6.75;;;2.50;;
15381;SDS011;7789;51.364;12.358;2023-05-27T12:33:24;5.10;;;2.40;;
15381;SDS011;7789;51.364;12.358;2023-05-27T12:38:27;5.93;;;2.53;;
15381;SDS011;7789;51.364;12.358;2023-05-27T12:43:30;9.07;;;3.22;;
15381;SDS011;7789;51.364;12.358;2023-05-27T12:48:35;5.60;;;2.30;;
15381;SDS011;7789;51.364;12.358;2023-05-27T12:53:38;6.78;;;2.75;;
15381;SDS011;7789;51.364;12.358;2023-05-27T12:58:42;6.60;;;2.13;;
15381;SDS011;7789;51.364;12.358;2023-05-27T13:03:49;4.70;;;1.90;;
15381;SDS011;7789;51.364;12.358;2023-05-27T13:08:54;4.78;;;2.15;;
15381;SDS011;7789;51.364;12.358;2023-05-27T13:13:57;5.35;;;2.45;;
15381;SDS011;7789;51.364;12.358;2023-05-27T13:19:01;4.25;;;1.92;;
15381;SDS011;7789;51.364;12.358;2023-05-27T13:24:05;5.55;;;2.00;;
15381;SDS011;7789;51.364;12.358;2023-05-27T13:29:09;4.22;;;2.10;;
15381;SDS011;7789;51.364;12.358;2023-05-27T13:34:15;5.65;;;2.20;;
15381;SDS011;7789;51.364;12.358;2023-05-27T13:39:19;5.93;;;2.50;;
15381;SDS011;7789;51.364;12.358;2023-05-27T13:44:22;4.72;;;2.05;;
15381;SDS011;7789;51.364;12.358;2023-05-27T13:49:27;4.78;;;2.38;;
15381;SDS011;7789;51.364;12.358;2023-05-27T13:54:31;4.13;;;2.10;;
15381;SDS011;7789;51.364;12.358;2023-05-27T13:59:34;5.57;;;2.28;;
15381;SDS011;7789;51.364;12.358;2023-05-27T14:04:39;5.28;;;1.90;;
15381;SDS011;7789;51.364;12.358;2023-05-27T14:09:42;6.45;;;2.40;;
15381;SDS011;7789;51.364;12.358;2023-05-27T14:14:45;3.83;;;2.15;;
15381;SDS011;7789;51.364;12.358;2023-05-27T14:19:50;4.00;;;1.85;;
15381;SDS011;7789;51.364;12.358;2023-05-27T14:24:53;3.58;;;1.92;;
15381;SDS011;7789;51.364;12.358;2023-05-27T14:29:56;4.97;;;2.10;;
15381;SDS011;7789;51.364;12.358;2023-05-27T14:35:01;4.47;;;2.03;;
15381;SDS011;7789;51.364;12.358;2023-05-27T14:40:05;4.78;;;2.33;;
15381;SDS011;7789;51.364;12.358;2023-05-27T14:45:10;6.63;;;2.78;;
15381;SDS011;7789;51.364;12.358;2023-05-27T14:50:14;6.55;;;2.75;;
15381;SDS011;7789;51.364;12.358;2023-05-27T14:55:18;4.82;;;2.05;;
15381;SDS011;7789;51.364;12.358;2023-05-27T15:00:22;2.80;;;1.80;;
15381;SDS011;7789;51.364;12.358;2023-05-27T15:05:27;3.58;;;1.83;;
15381;SDS011;7789;51.364;12.358;2023-05-27T15:10:30;5.90;;;2.40;;
15381;SDS011;7789;51.364;12.358;2023-05-27T15:15:34;9.57;;;3.13;;
15381;SDS011;7789;51.364;12.358;2023-05-27T15:20:41;5.10;;;2.40;;
15381;SDS011;7789;51.364;12.358;2023-05-27T15:25:45;4.05;;;1.90;;
15381;SDS011;7789;51.364;12.358;2023-05-27T15:30:49;4.97;;;2.15;;
15381;SDS011;7789;51.364;12.358;2023-05-27T15:35:55;5.55;;;3.03;;
15381;SDS011;7789;51.364;12.358;2023-05-27T15:40:58;7.35;;;2.00;;
15381;SDS011;7789;51.364;12.358;2023-05-27T15:46:01;4.88;;;1.85;;
15381;SDS011;7789;51.364;12.358;2023-05-27T15:51:07;4.88;;;1.80;;
15381;SDS011;7789;51.364;12.358;2023-05-27T15:56:11;4.57;;;1.77;;
15381;SDS011;7789;51.364;12.358;2023-05-27T16:01:14;4.90;;;2.00;;
15381;SDS011;7789;51.364;12.358;2023-05-27T16:06:21;5.00;;;1.88;;
15381;SDS011;7789;51.364;12.358;2023-05-27T16:11:25;3.08;;;1.80;;
15381;SDS011;7789;51.364;12.358;2023-05-27T16:16:28;4.30;;;1.92;;
15381;SDS011;7789;51.364;12.358;2023-05-27T16:21:33;4.70;;;2.45;;
15381;SDS011;7789;51.364;12.358;2023-05-27T16:26:36;8.45;;;6.57;;
15381;SDS011;7789;51.364;12.358;2023-05-27T16:31:40;3.60;;;1.77;;
15381;SDS011;7789;51.364;12.358;2023-05-27T16:36:45;4.68;;;2.10;;
15381;SDS011;7789;51.364;12.358;2023-05-27T16:41:48;2.92;;;2.00;;
15381;SDS011;7789;51.364;12.358;2023-05-27T16:46:53;4.38;;;1.67;;
15381;SDS011;7789;51.364;12.358;2023-05-27T16:51:57;3.83;;;1.90;;
15381;SDS011;7789;51.364;12.358;2023-05-27T16:57:01;4.32;;;2.03;;
15381;SDS011;7789;51.364;12.358;2023-05-27T17:02:05;3.40;;;1.90;;
15381;SDS011;7789;51.364;12.358;2023-05-27T17:07:09;4.10;;;2.40;;
15381;SDS011;7789;51.364;12.358;2023-05-27T17:12:13;3.60;;;1.80;;
15381;SDS011;7789;51.364;12.358;2023-05-27T17:17:16;3.60;;;1.90;;
15381;SDS011;7789;51.364;12.358;2023-05-27T17:22:21;3.63;;;1.73;;
15381;SDS011;7789;51.364;12.358;2023-05-27T17:27:25;5.60;;;2.08;;
15381;SDS011;7789;51.364;12.358;2023-05-27T17:32:28;3.92;;;1.88;;
15381;SDS011;7789;51.364;12.358;2023-05-27T17:37:33;3.95;;;2.15;;
15381;SDS011;7789;51.364;12.358;2023-05-27T17:42:37;10.18;;;7.18;;
15381;SDS011;7789;51.364;12.358;2023-05-27T17:47:40;3.65;;;2.35;;
15381;SDS011;7789;51.364;12.358;2023-05-27T17:52:46;5.03;;;2.45;;
15381;SDS011;7789;51.364;12.358;2023-05-27T17:57:49;4.00;;;2.33;;
15381;SDS011;7789;51.364;12.358;2023-05-27T18:02:53;3.50;;;2.17;;
15381;SDS011;7789;51.364;12.358;2023-05-27T18:07:57;4.80;;;2.40;;
15381;SDS011;7789;51.364;12.358;2023-05-27T18:13:01;6.90;;;2.50;;
15381;SDS011;7789;51.364;12.358;2023-05-27T18:18:04;4.35;;;2.25;;
15381;SDS011;7789;51.364;12.358;2023-05-27T18:23:09;5.38;;;2.15;;
15381;SDS011;7789;51.364;12.358;2023-05-27T18:28:12;4.20;;;2.30;;
15381;SDS011;7789;51.364;12.358;2023-05-27T18:33:16;3.78;;;2.15;;
15381;SDS011;7789;51.364;12.358;2023-05-27T18:38:21;2.88;;;1.90;;
15381;SDS011;7789;51.364;12.358;2023-05-27T18:43:25;2.88;;;2.10;;
15381;SDS011;7789;51.364;12.358;2023-05-27T18:48:28;8.10;;;2.97;;
15381;SDS011;7789;51.364;12.358;2023-05-27T18:53:33;8.95;;;4.70;;
15381;SDS011;7789;51.364;12.358;2023-05-27T18:58:37;8.98;;;4.22;;
15381;SDS011;7789;51.364;12.358;2023-05-27T19:03:41;5.88;;;3.53;;
15381;SDS011;7789;51.364;12.358;2023-05-27T19:08:46;5.72;;;2.78;;
15381;SDS011;7789;51.364;12.358;2023-05-27T19:13:49;8.75;;;3.40;;
15381;SDS011;7789;51.364;12.358;2023-05-27T19:18:53;5.63;;;2.90;;
15381;SDS011;7789;51.364;12.358;2023-05-27T19:23:57;5.97;;;3.05;;
15381;SDS011;7789;51.364;12.358;2023-05-27T19:29:00;6.75;;;3.08;;
15381;SDS011;7789;51.364;12.358;2023-05-27T19:34:04;5.90;;;2.70;;
15381;SDS011;7789;51.364;12.358;2023-05-27T19:39:11;4.50;;;3.00;;
15381;SDS011;7789;51.364;12.358;2023-05-27T19:44:14;5.28;;;2.92;;
15381;SDS011;7789;51.364;12.358;2023-05-27T19:49:18;5.72;;;3.63;;
15381;SDS011;7789;51.364;12.358;2023-05-27T19:54:22;4.28;;;3.30;;
15381;SDS011;7789;51.364;12.358;2023-05-27T19:59:25;5.53;;;3.95;;
15381;SDS011;7789;51.364;12.358;2023-05-27T20:04:31;6.22;;;3.63;;
15381;SDS011;7789;51.364;12.358;2023-05-27T20:09:36;6.60;;;3.50;;
15381;SDS011;7789;51.364;12.358;2023-05-27T20:14:40;6.22;;;3.80;;
15381;SDS011;7789;51.364;12.358;2023-05-27T20:19:46;7.72;;;4.22;;
15381;SDS011;7789;51.364;12.358;2023-05-27T20:24:52;5.93;;;3.97;;
15381;SDS011;7789;51.364;12.358;2023-05-27T20:29:56;6.03;;;3.90;;
15381;SDS011;7789;51.364;12.358;2023-05-27T20:34:59;8.43;;;3.75;;
15381;SDS011;7789;51.364;12.358;2023-05-27T20:40:05;6.80;;;3.88;;
15381;SDS011;7789;51.364;12.358;2023-05-27T20:45:09;8.73;;;4.60;;
15381;SDS011;7789;51.364;12.358;2023-05-27T20:50:13;7.07;;;4.30;;
15381;SDS011;7789;51.364;12.358;2023-05-27T20:55:18;5.85;;;4.00;;
15381;SDS011;7789;51.364;12.358;2023-05-27T21:00:21;6.75;;;3.58;;
15381;SDS011;7789;51.364;12.358;2023-05-27T21:05:26;6.93;;;3.63;;
15381;SDS011;7789;51.364;12.358;2023-05-27T21:10:31;6.18;;;3.58;;
15381;SDS011;7789;51.364;12.358;2023-05-27T21:15:35;8.57;;;4.43;;
15381;SDS011;7789;51.364;12.358;2023-05-27T21:20:39;7.20;;;4.47;;
15381;SDS011;7789;51.364;12.358;2023-05-27T21:25:43;7.15;;;4.25;;
15381;SDS011;7789;51.364;12.358;2023-05-27T21:30:47;5.47;;;3.75;;
15381;SDS011;7789;51.364;12.358;2023-05-27T21:35:50;6.13;;;3.75;;
15381;SDS011;7789;51.364;12.358;2023-05-27T21:40:56;6.93;;;4.20;;
15381;SDS011;7789;51.364;12.358;2023-05-27T21:45:59;6.10;;;4.38;;
15381;SDS011;7789;51.364;12.358;2023-05-27T21:51:02;7.80;;;4.30;;
15381;SDS011;7789;51.364;12.358;2023-05-27T21:56:07;6.22;;;4.53;;
15381;SDS011;7789;51.364;12.358;2023-05-27T22:01:11;7.40;;;4.78;;
15381;SDS011;7789;51.364;12.358;2023-05-27T22:06:15;8.45;;;5.00;;
15381;SDS011;7789;51.364;12.358;2023-05-27T22:11:19;9.02;;;5.38;;
15381;SDS011;7789;51.364;12.358;2023-05-27T22:16:23;6.22;;;4.78;;
15381;SDS011;7789;51.364;12.358;2023-05-27T22:21:26;8.20;;;6.10;;
15381;SDS011;7789;51.364;12.358;2023-05-27T22:26:33;5.70;;;4.78;;
15381;SDS011;7789;51.364;12.358;2023-05-27T22:31:36;8.90;;;5.65;;
15381;SDS011;7789;51.364;12.358;2023-05-27T22:36:40;9.65;;;5.47;;
15381;SDS011;7789;51.364;12.358;2023-05-27T22:41:45;7.93;;;5.95;;
15381;SDS011;7789;51.364;12.358;2023-05-27T22:46:48;6.63;;;4.93;;
15381;SDS011;7789;51.364;12.358;2023-05-27T22:51:51;8.50;;;5.60;;
15381;SDS011;7789;51.364;12.358;2023-05-27T22:56:56;6.43;;;5.15;;
15381;SDS011;7789;51.364;12.358;2023-05-27T23:01:59;8.23;;;5.22;;
15381;SDS011;7789;51.364;12.358;2023-05-27T23:07:03;7.75;;;5.45;;
15381;SDS011;7789;51.364;12.358;2023-05-27T23:12:08;8.40;;;4.53;;
15381;SDS011;7789;51.364;12.358;2023-05-27T23:17:11;6.38;;;4.28;;
15381;SDS011;7789;51.364;12.358;2023-05-27T23:22:15;7.05;;;4.97;;
15381;SDS011;7789;51.364;12.358;2023-05-27T23:27:19;9.02;;;4.80;;
15381;SDS011;7789;51.364;12.358;2023-05-27T23:32:23;6.63;;;4.93;;
15381;SDS011;7789;51.364;12.358;2023-05-27T23:37:26;7.57;;;4.80;;
15381;SDS011;7789;51.364;12.358;2023-05-27T23:42:31;7.25;;;4.90;;
15381;SDS011;7789;51.364;12.358;2023-05-27T23:47:34;9.90;;;4.80;;
15381;SDS011;7789;51.364;12.358;2023-05-27T23:52:37;6.15;;;4.45;;
15381;SDS011;7789;51.364;12.358;2023-05-27T23:57:42;6.80;;;5.22;;
